LFOP/URO METAR and TAF weather

Enter ICAO airport designator
Station Type Date Time Source
LFOP METAR 2020/11/27 15:00 UTC NOAA

LFOP 271500Z AUTO 09005KT CAVOK 08/06 Q1015 NOSIG


Station Type Date Time Source
LFOP Decoded METAR 2020/11/27 15:00 UTC NOAA

Rouen, France (LFOP) 49-23N 001-11E 157M
Nov 27, 2020 - 10:00 AM EST / 2020.11.27 1500 UTC
Wind: from the E (090 degrees) at 6 MPH (5 KT):0
Visibility: greater than 7 mile(s):0
Temperature: 46 F (8 C)
Dew Point: 42 F (6 C)
Relative Humidity: 87%
Pressure (altimeter): 29.97 in. Hg (1015 hPa)
ob: LFOP 271500Z AUTO 09005KT CAVOK 08/06 Q1015 NOSIG
cycle: 15

Station Type Date Time Source
LFOP TAF 2020/11/27 12:21 UTC NOAA

TAF TAF LFOP 271100Z 2712/2812 04006KT 6000 NSC
BECMG 2718/2721 2000 BR PROB40 2721/2810 0300 FG VV///
BECMG 2810/2812 6000 NSW

Example: see airport list